sensor_id;sensor_type;location;lat;lon;timestamp;temperature;humidity
69464;DHT22;56665;41.106;16.688;2023-07-29T00:02:12;25.78;60.53
69464;DHT22;56665;41.106;16.688;2023-07-29T00:05:16;25.73;60.85
69464;DHT22;56665;41.106;16.688;2023-07-29T00:08:22;25.66;60.98
69464;DHT22;56665;41.106;16.688;2023-07-29T00:11:26;25.71;60.95
69464;DHT22;56665;41.106;16.688;2023-07-29T00:14:29;25.68;61.16
69464;DHT22;56665;41.106;16.688;2023-07-29T00:17:33;25.69;60.98
69464;DHT22;56665;41.106;16.688;2023-07-29T00:20:37;25.63;61.06
69464;DHT22;56665;41.106;16.688;2023-07-29T00:23:41;25.62;61.11
69464;DHT22;56665;41.106;16.688;2023-07-29T00:26:46;25.57;61.21
69464;DHT22;56665;41.106;16.688;2023-07-29T00:29:51;25.48;61.57
69464;DHT22;56665;41.106;16.688;2023-07-29T00:32:54;25.49;61.63
69464;DHT22;56665;41.106;16.688;2023-07-29T00:35:58;25.46;61.56
69464;DHT22;56665;41.106;16.688;2023-07-29T00:39:05;25.44;61.79
69464;DHT22;56665;41.106;16.688;2023-07-29T00:42:09;25.39;61.96
69464;DHT22;56665;41.106;16.688;2023-07-29T00:45:14;25.35;61.85
69464;DHT22;56665;41.106;16.688;2023-07-29T00:48:18;25.37;61.63
69464;DHT22;56665;41.106;16.688;2023-07-29T00:51:21;25.32;61.63
69464;DHT22;56665;41.106;16.688;2023-07-29T00:54:27;25.37;61.63
69464;DHT22;56665;41.106;16.688;2023-07-29T00:57:31;25.32;61.34
69464;DHT22;56665;41.106;16.688;2023-07-29T01:00:35;25.34;60.87
69464;DHT22;56665;41.106;16.688;2023-07-29T01:03:41;25.34;60.89
69464;DHT22;56665;41.106;16.688;2023-07-29T01:06:50;25.31;61.05
69464;DHT22;56665;41.106;16.688;2023-07-29T01:10:03;25.28;61.12
69464;DHT22;56665;41.106;16.688;2023-07-29T01:13:16;25.30;60.98
69464;DHT22;56665;41.106;16.688;2023-07-29T01:16:25;25.22;60.98
69464;DHT22;56665;41.106;16.688;2023-07-29T01:19:48;25.18;61.11
69464;DHT22;56665;41.106;16.688;2023-07-29T01:22:56;25.17;61.10
69464;DHT22;56665;41.106;16.688;2023-07-29T01:26:01;25.14;61.23
69464;DHT22;56665;41.106;16.688;2023-07-29T01:29:05;25.13;61.42
69464;DHT22;56665;41.106;16.688;2023-07-29T01:32:22;25.04;61.61
69464;DHT22;56665;41.106;16.688;2023-07-29T01:38:38;24.93;61.71
69464;DHT22;56665;41.106;16.688;2023-07-29T01:41:45;24.90;61.63
69464;DHT22;56665;41.106;16.688;2023-07-29T01:44:50;24.88;61.41
69464;DHT22;56665;41.106;16.688;2023-07-29T01:47:53;24.93;61.27
69464;DHT22;56665;41.106;16.688;2023-07-29T01:51:00;24.87;61.18
69464;DHT22;56665;41.106;16.688;2023-07-29T01:54:03;24.90;61.07
69464;DHT22;56665;41.106;16.688;2023-07-29T01:57:07;24.91;60.79
69464;DHT22;56665;41.106;16.688;2023-07-29T02:00:11;24.90;60.75
69464;DHT22;56665;41.106;16.688;2023-07-29T02:03:19;24.90;60.88
69464;DHT22;56665;41.106;16.688;2023-07-29T02:06:24;24.88;60.72
69464;DHT22;56665;41.106;16.688;2023-07-29T02:09:28;24.87;60.64
69464;DHT22;56665;41.106;16.688;2023-07-29T02:12:32;24.87;60.62
69464;DHT22;56665;41.106;16.688;2023-07-29T02:15:36;24.83;60.71
69464;DHT22;56665;41.106;16.688;2023-07-29T02:18:40;24.79;60.73
69464;DHT22;56665;41.106;16.688;2023-07-29T02:21:44;24.80;60.80
69464;DHT22;56665;41.106;16.688;2023-07-29T02:24:47;24.74;60.83
69464;DHT22;56665;41.106;16.688;2023-07-29T02:27:53;24.73;60.90
69464;DHT22;56665;41.106;16.688;2023-07-29T02:31:17;24.72;60.97
69464;DHT22;56665;41.106;16.688;2023-07-29T02:34:21;24.72;61.06
69464;DHT22;56665;41.106;16.688;2023-07-29T02:37:26;24.72;60.90
69464;DHT22;56665;41.106;16.688;2023-07-29T02:40:30;24.72;61.00
69464;DHT22;56665;41.106;16.688;2023-07-29T02:43:35;24.64;60.99
69464;DHT22;56665;41.106;16.688;2023-07-29T02:46:39;24.69;61.20
69464;DHT22;56665;41.106;16.688;2023-07-29T02:49:43;24.67;61.13
69464;DHT22;56665;41.106;16.688;2023-07-29T02:52:48;24.67;61.05
69464;DHT22;56665;41.106;16.688;2023-07-29T02:55:52;24.63;61.10
69464;DHT22;56665;41.106;16.688;2023-07-29T02:58:58;24.64;61.10
69464;DHT22;56665;41.106;16.688;2023-07-29T03:02:02;24.67;61.15
69464;DHT22;56665;41.106;16.688;2023-07-29T03:05:06;24.59;61.11
69464;DHT22;56665;41.106;16.688;2023-07-29T03:08:10;24.59;61.19
69464;DHT22;56665;41.106;16.688;2023-07-29T03:11:14;24.60;61.14
69464;DHT22;56665;41.106;16.688;2023-07-29T03:14:18;24.59;61.02
69464;DHT22;56665;41.106;16.688;2023-07-29T03:17:22;24.57;61.19
69464;DHT22;56665;41.106;16.688;2023-07-29T03:20:26;24.56;61.33
69464;DHT22;56665;41.106;16.688;2023-07-29T03:23:30;24.57;61.16
69464;DHT22;56665;41.106;16.688;2023-07-29T03:26:34;24.57;61.05
69464;DHT22;56665;41.106;16.688;2023-07-29T03:29:39;24.52;61.19
69464;DHT22;56665;41.106;16.688;2023-07-29T03:32:43;24.56;61.15
69464;DHT22;56665;41.106;16.688;2023-07-29T03:35:51;24.56;61.23
69464;DHT22;56665;41.106;16.688;2023-07-29T03:38:55;24.52;61.14
69464;DHT22;56665;41.106;16.688;2023-07-29T03:41:59;24.55;61.12
69464;DHT22;56665;41.106;16.688;2023-07-29T03:45:03;24.56;61.30
69464;DHT22;56665;41.106;16.688;2023-07-29T03:48:07;24.55;61.18
69464;DHT22;56665;41.106;16.688;2023-07-29T03:51:11;24.55;61.09
69464;DHT22;56665;41.106;16.688;2023-07-29T03:54:14;24.52;61.26
69464;DHT22;56665;41.106;16.688;2023-07-29T03:57:18;24.55;61.30
69464;DHT22;56665;41.106;16.688;2023-07-29T04:00:22;24.60;61.14
69464;DHT22;56665;41.106;16.688;2023-07-29T04:03:26;24.59;61.18
69464;DHT22;56665;41.106;16.688;2023-07-29T04:06:31;24.62;61.47
69464;DHT22;56665;41.106;16.688;2023-07-29T04:09:37;24.69;61.03
69464;DHT22;56665;41.106;16.688;2023-07-29T04:12:40;24.69;60.90
69464;DHT22;56665;41.106;16.688;2023-07-29T04:15:44;24.70;60.91
69464;DHT22;56665;41.106;16.688;2023-07-29T04:18:48;24.76;60.96
69464;DHT22;56665;41.106;16.688;2023-07-29T04:21:52;24.80;60.69
69464;DHT22;56665;41.106;16.688;2023-07-29T04:24:57;24.82;60.76
69464;DHT22;56665;41.106;16.688;2023-07-29T04:28:01;24.84;60.74
69464;DHT22;56665;41.106;16.688;2023-07-29T04:31:06;24.82;60.60
69464;DHT22;56665;41.106;16.688;2023-07-29T04:34:10;24.88;60.79
69464;DHT22;56665;41.106;16.688;2023-07-29T04:37:15;24.96;60.66
69464;DHT22;56665;41.106;16.688;2023-07-29T04:40:19;25.03;60.42
69464;DHT22;56665;41.106;16.688;2023-07-29T04:43:30;25.14;60.32
69464;DHT22;56665;41.106;16.688;2023-07-29T04:46:36;25.28;59.87
69464;DHT22;56665;41.106;16.688;2023-07-29T04:49:39;25.39;59.72
69464;DHT22;56665;41.106;16.688;2023-07-29T04:52:43;25.58;59.51
69464;DHT22;56665;41.106;16.688;2023-07-29T04:55:47;25.76;59.17
69464;DHT22;56665;41.106;16.688;2023-07-29T04:58:51;25.90;58.91
69464;DHT22;56665;41.106;16.688;2023-07-29T05:01:54;26.06;58.54
69464;DHT22;56665;41.106;16.688;2023-07-29T05:04:59;26.30;58.03
69464;DHT22;56665;41.106;16.688;2023-07-29T05:08:03;26.45;57.71
69464;DHT22;56665;41.106;16.688;2023-07-29T05:11:07;26.62;57.55
69464;DHT22;56665;41.106;16.688;2023-07-29T05:14:13;26.78;57.10
69464;DHT22;56665;41.106;16.688;2023-07-29T05:17:16;26.95;56.75
69464;DHT22;56665;41.106;16.688;2023-07-29T05:20:20;27.08;56.44
69464;DHT22;56665;41.106;16.688;2023-07-29T05:23:24;27.24;56.25
69464;DHT22;56665;41.106;16.688;2023-07-29T05:26:28;27.45;55.78
69464;DHT22;56665;41.106;16.688;2023-07-29T05:29:33;27.60;55.99
69464;DHT22;56665;41.106;16.688;2023-07-29T05:32:36;27.81;55.72
69464;DHT22;56665;41.106;16.688;2023-07-29T05:35:40;28.00;54.78
69464;DHT22;56665;41.106;16.688;2023-07-29T05:38:45;28.15;54.00
69464;DHT22;56665;41.106;16.688;2023-07-29T05:41:48;28.33;53.69
69464;DHT22;56665;41.106;16.688;2023-07-29T05:44:52;28.53;53.49
69464;DHT22;56665;41.106;16.688;2023-07-29T05:47:57;28.79;53.13
69464;DHT22;56665;41.106;16.688;2023-07-29T05:51:01;28.90;52.89
69464;DHT22;56665;41.106;16.688;2023-07-29T05:54:04;29.14;52.64
69464;DHT22;56665;41.106;16.688;2023-07-29T05:57:12;29.38;52.20
69464;DHT22;56665;41.106;16.688;2023-07-29T06:00:16;29.58;51.62
69464;DHT22;56665;41.106;16.688;2023-07-29T06:03:19;29.86;51.15
69464;DHT22;56665;41.106;16.688;2023-07-29T06:06:23;30.13;50.03
69464;DHT22;56665;41.106;16.688;2023-07-29T06:09:28;30.30;48.56
69464;DHT22;56665;41.106;16.688;2023-07-29T06:12:31;30.50;48.12
69464;DHT22;56665;41.106;16.688;2023-07-29T06:15:35;30.68;47.34
69464;DHT22;56665;41.106;16.688;2023-07-29T06:18:39;30.87;46.66
69464;DHT22;56665;41.106;16.688;2023-07-29T06:21:43;31.06;46.69
69464;DHT22;56665;41.106;16.688;2023-07-29T06:24:46;31.35;46.01
69464;DHT22;56665;41.106;16.688;2023-07-29T06:27:52;31.40;46.14
69464;DHT22;56665;41.106;16.688;2023-07-29T06:30:55;31.67;45.91
69464;DHT22;56665;41.106;16.688;2023-07-29T06:33:59;31.87;45.98
69464;DHT22;56665;41.106;16.688;2023-07-29T06:37:04;32.08;45.35
69464;DHT22;56665;41.106;16.688;2023-07-29T06:40:08;32.27;45.37
69464;DHT22;56665;41.106;16.688;2023-07-29T06:43:13;32.59;45.01
69464;DHT22;56665;41.106;16.688;2023-07-29T06:46:18;32.83;44.70
69464;DHT22;56665;41.106;16.688;2023-07-29T06:49:22;33.00;44.90
69464;DHT22;56665;41.106;16.688;2023-07-29T06:52:27;33.12;43.73
69464;DHT22;56665;41.106;16.688;2023-07-29T06:55:31;33.17;44.43
69464;DHT22;56665;41.106;16.688;2023-07-29T06:58:36;33.37;44.61
69464;DHT22;56665;41.106;16.688;2023-07-29T07:01:40;33.57;44.20
69464;DHT22;56665;41.106;16.688;2023-07-29T07:04:44;33.84;43.66
69464;DHT22;56665;41.106;16.688;2023-07-29T07:07:48;33.98;43.47
69464;DHT22;56665;41.106;16.688;2023-07-29T07:10:52;34.31;43.29
69464;DHT22;56665;41.106;16.688;2023-07-29T07:13:55;34.45;43.49
69464;DHT22;56665;41.106;16.688;2023-07-29T07:17:00;34.63;43.16
69464;DHT22;56665;41.106;16.688;2023-07-29T07:20:05;34.94;42.90
69464;DHT22;56665;41.106;16.688;2023-07-29T07:23:09;35.39;42.35
69464;DHT22;56665;41.106;16.688;2023-07-29T07:26:15;35.76;42.37
69464;DHT22;56665;41.106;16.688;2023-07-29T07:29:19;36.37;41.70
69464;DHT22;56665;41.106;16.688;2023-07-29T07:32:23;36.98;40.75
69464;DHT22;56665;41.106;16.688;2023-07-29T07:35:27;38.50;38.38
69464;DHT22;56665;41.106;16.688;2023-07-29T07:38:30;39.93;37.00
69464;DHT22;56665;41.106;16.688;2023-07-29T07:41:35;41.35;35.04
69464;DHT22;56665;41.106;16.688;2023-07-29T07:44:39;42.42;33.73
69464;DHT22;56665;41.106;16.688;2023-07-29T07:47:43;44.04;32.35
69464;DHT22;56665;41.106;16.688;2023-07-29T07:50:47;45.62;30.18
69464;DHT22;56665;41.106;16.688;2023-07-29T07:53:50;46.55;29.66
69464;DHT22;56665;41.106;16.688;2023-07-29T07:56:54;47.09;29.02
69464;DHT22;56665;41.106;16.688;2023-07-29T07:59:58;47.40;28.27
69464;DHT22;56665;41.106;16.688;2023-07-29T08:03:02;47.39;28.59
69464;DHT22;56665;41.106;16.688;2023-07-29T08:06:05;47.56;28.76
69464;DHT22;56665;41.106;16.688;2023-07-29T08:09:09;47.46;29.04
69464;DHT22;56665;41.106;16.688;2023-07-29T08:12:13;47.54;29.10
69464;DHT22;56665;41.106;16.688;2023-07-29T08:15:16;47.63;28.85
69464;DHT22;56665;41.106;16.688;2023-07-29T08:18:20;47.36;29.07
69464;DHT22;56665;41.106;16.688;2023-07-29T08:21:26;47.43;29.51
69464;DHT22;56665;41.106;16.688;2023-07-29T08:24:29;47.56;29.37
69464;DHT22;56665;41.106;16.688;2023-07-29T08:27:34;47.49;29.58
69464;DHT22;56665;41.106;16.688;2023-07-29T08:30:37;47.42;29.01
69464;DHT22;56665;41.106;16.688;2023-07-29T08:33:41;47.26;29.06
69464;DHT22;56665;41.106;16.688;2023-07-29T08:36:45;47.01;29.28
69464;DHT22;56665;41.106;16.688;2023-07-29T08:39:49;47.12;29.46
69464;DHT22;56665;41.106;16.688;2023-07-29T08:42:54;47.15;29.57
69464;DHT22;56665;41.106;16.688;2023-07-29T08:45:59;47.02;29.57
69464;DHT22;56665;41.106;16.688;2023-07-29T08:49:03;46.67;29.00
69464;DHT22;56665;41.106;16.688;2023-07-29T08:52:07;46.74;28.36
69464;DHT22;56665;41.106;16.688;2023-07-29T08:55:12;46.31;29.06
69464;DHT22;56665;41.106;16.688;2023-07-29T08:58:16;46.21;29.19
69464;DHT22;56665;41.106;16.688;2023-07-29T09:01:20;45.83;29.77
69464;DHT22;56665;41.106;16.688;2023-07-29T09:04:23;45.46;30.48
69464;DHT22;56665;41.106;16.688;2023-07-29T09:07:28;45.36;30.00
69464;DHT22;56665;41.106;16.688;2023-07-29T09:10:36;44.95;29.54
69464;DHT22;56665;41.106;16.688;2023-07-29T09:13:43;43.75;31.15
69464;DHT22;56665;41.106;16.688;2023-07-29T09:16:47;43.89;30.99
69464;DHT22;56665;41.106;16.688;2023-07-29T09:19:51;43.28;30.63
69464;DHT22;56665;41.106;16.688;2023-07-29T09:22:58;42.81;31.28
69464;DHT22;56665;41.106;16.688;2023-07-29T09:26:03;42.40;32.55
69464;DHT22;56665;41.106;16.688;2023-07-29T09:29:07;42.29;33.06
69464;DHT22;56665;41.106;16.688;2023-07-29T09:32:18;42.28;32.71
69464;DHT22;56665;41.106;16.688;2023-07-29T09:35:22;42.01;33.00
69464;DHT22;56665;41.106;16.688;2023-07-29T09:38:27;41.71;33.32
69464;DHT22;56665;41.106;16.688;2023-07-29T09:41:31;41.64;32.64
69464;DHT22;56665;41.106;16.688;2023-07-29T09:44:38;41.62;32.03
69464;DHT22;56665;41.106;16.688;2023-07-29T09:47:46;41.53;32.31
69464;DHT22;56665;41.106;16.688;2023-07-29T09:50:50;41.31;32.05
69464;DHT22;56665;41.106;16.688;2023-07-29T09:53:55;40.51;32.64
69464;DHT22;56665;41.106;16.688;2023-07-29T09:56:58;40.29;32.69
69464;DHT22;56665;41.106;16.688;2023-07-29T10:00:02;39.90;31.24
69464;DHT22;56665;41.106;16.688;2023-07-29T10:03:09;39.73;32.22
69464;DHT22;56665;41.106;16.688;2023-07-29T10:06:14;39.27;34.08
69464;DHT22;56665;41.106;16.688;2023-07-29T10:09:18;39.53;33.92
69464;DHT22;56665;41.106;16.688;2023-07-29T10:12:24;39.78;34.94
69464;DHT22;56665;41.106;16.688;2023-07-29T10:15:29;39.93;34.61
69464;DHT22;56665;41.106;16.688;2023-07-29T10:18:33;39.67;34.74
69464;DHT22;56665;41.106;16.688;2023-07-29T10:21:39;39.68;35.25
69464;DHT22;56665;41.106;16.688;2023-07-29T10:24:44;39.60;35.87
69464;DHT22;56665;41.106;16.688;2023-07-29T10:28:05;38.96;35.93
69464;DHT22;56665;41.106;16.688;2023-07-29T10:31:09;39.12;36.02
69464;DHT22;56665;41.106;16.688;2023-07-29T10:34:13;38.21;37.41
69464;DHT22;56665;41.106;16.688;2023-07-29T10:37:17;38.21;36.05
69464;DHT22;56665;41.106;16.688;2023-07-29T10:40:22;38.32;37.60
69464;DHT22;56665;41.106;16.688;2023-07-29T10:43:38;38.62;37.40
69464;DHT22;56665;41.106;16.688;2023-07-29T10:46:41;38.60;37.90
69464;DHT22;56665;41.106;16.688;2023-07-29T10:49:49;38.20;37.96
69464;DHT22;56665;41.106;16.688;2023-07-29T10:52:53;37.59;37.62
69464;DHT22;56665;41.106;16.688;2023-07-29T10:55:57;37.56;37.80
69464;DHT22;56665;41.106;16.688;2023-07-29T11:02:20;37.61;36.79
69464;DHT22;56665;41.106;16.688;2023-07-29T11:05:23;37.65;37.95
69464;DHT22;56665;41.106;16.688;2023-07-29T11:08:28;38.19;38.14
69464;DHT22;56665;41.106;16.688;2023-07-29T11:11:32;38.25;38.02
69464;DHT22;56665;41.106;16.688;2023-07-29T11:14:37;38.34;38.18
69464;DHT22;56665;41.106;16.688;2023-07-29T11:17:57;38.00;39.08
69464;DHT22;56665;41.106;16.688;2023-07-29T11:21:03;37.61;39.03
69464;DHT22;56665;41.106;16.688;2023-07-29T11:24:09;37.52;39.39
69464;DHT22;56665;41.106;16.688;2023-07-29T11:27:12;37.26;39.39
69464;DHT22;56665;41.106;16.688;2023-07-29T11:30:16;36.87;39.96
69464;DHT22;56665;41.106;16.688;2023-07-29T11:33:22;36.57;42.50
69464;DHT22;56665;41.106;16.688;2023-07-29T11:36:27;36.98;41.57
69464;DHT22;56665;41.106;16.688;2023-07-29T11:39:32;37.38;40.66
69464;DHT22;56665;41.106;16.688;2023-07-29T11:42:37;37.31;40.03
69464;DHT22;56665;41.106;16.688;2023-07-29T11:45:40;36.81;39.59
69464;DHT22;56665;41.106;16.688;2023-07-29T11:48:44;36.40;40.27
69464;DHT22;56665;41.106;16.688;2023-07-29T11:51:48;36.68;40.78
69464;DHT22;56665;41.106;16.688;2023-07-29T11:54:53;36.91;39.97
69464;DHT22;56665;41.106;16.688;2023-07-29T11:57:57;36.87;40.60
69464;DHT22;56665;41.106;16.688;2023-07-29T12:01:01;36.74;40.84
69464;DHT22;56665;41.106;16.688;2023-07-29T12:04:05;36.51;41.37
69464;DHT22;56665;41.106;16.688;2023-07-29T12:07:09;36.51;43.10
69464;DHT22;56665;41.106;16.688;2023-07-29T12:10:13;36.58;41.68
69464;DHT22;56665;41.106;16.688;2023-07-29T12:13:17;36.66;42.54
69464;DHT22;56665;41.106;16.688;2023-07-29T12:16:21;36.51;43.07
69464;DHT22;56665;41.106;16.688;2023-07-29T12:19:40;36.46;43.36
69464;DHT22;56665;41.106;16.688;2023-07-29T12:22:44;36.66;42.41
69464;DHT22;56665;41.106;16.688;2023-07-29T12:25:48;36.46;43.44
69464;DHT22;56665;41.106;16.688;2023-07-29T12:28:52;36.44;44.21
69464;DHT22;56665;41.106;16.688;2023-07-29T12:32:01;36.47;43.71
69464;DHT22;56665;41.106;16.688;2023-07-29T12:35:09;36.12;44.28
69464;DHT22;56665;41.106;16.688;2023-07-29T12:38:21;36.12;45.06
69464;DHT22;56665;41.106;16.688;2023-07-29T12:41:24;35.66;44.79
69464;DHT22;56665;41.106;16.688;2023-07-29T12:44:33;34.96;46.32
69464;DHT22;56665;41.106;16.688;2023-07-29T12:47:38;34.57;47.04
69464;DHT22;56665;41.106;16.688;2023-07-29T12:50:41;34.33;47.33
69464;DHT22;56665;41.106;16.688;2023-07-29T12:53:45;33.97;48.10
69464;DHT22;56665;41.106;16.688;2023-07-29T12:56:49;34.23;48.30
69464;DHT22;56665;41.106;16.688;2023-07-29T12:59:53;34.73;47.90
69464;DHT22;56665;41.106;16.688;2023-07-29T13:02:57;35.33;47.36
69464;DHT22;56665;41.106;16.688;2023-07-29T13:06:01;35.30;46.96
69464;DHT22;56665;41.106;16.688;2023-07-29T13:09:04;35.24;46.29
69464;DHT22;56665;41.106;16.688;2023-07-29T13:12:09;35.26;46.16
69464;DHT22;56665;41.106;16.688;2023-07-29T13:15:13;35.82;45.69
69464;DHT22;56665;41.106;16.688;2023-07-29T13:18:17;35.75;45.88
69464;DHT22;56665;41.106;16.688;2023-07-29T13:21:20;35.49;46.71
69464;DHT22;56665;41.106;16.688;2023-07-29T13:24:24;35.81;45.88
69464;DHT22;56665;41.106;16.688;2023-07-29T13:27:28;35.48;45.35
69464;DHT22;56665;41.106;16.688;2023-07-29T13:30:33;35.18;45.93
69464;DHT22;56665;41.106;16.688;2023-07-29T13:33:37;35.31;45.50
69464;DHT22;56665;41.106;16.688;2023-07-29T13:36:40;35.07;45.33
69464;DHT22;56665;41.106;16.688;2023-07-29T13:39:44;35.01;45.37
69464;DHT22;56665;41.106;16.688;2023-07-29T13:42:48;35.35;44.09
69464;DHT22;56665;41.106;16.688;2023-07-29T13:45:52;35.24;45.09
69464;DHT22;56665;41.106;16.688;2023-07-29T13:48:57;35.48;45.47
69464;DHT22;56665;41.106;16.688;2023-07-29T13:52:00;35.75;43.64
69464;DHT22;56665;41.106;16.688;2023-07-29T13:55:06;35.89;43.24
69464;DHT22;56665;41.106;16.688;2023-07-29T13:58:10;35.78;44.54
69464;DHT22;56665;41.106;16.688;2023-07-29T14:01:13;35.82;44.61
69464;DHT22;56665;41.106;16.688;2023-07-29T14:04:18;35.82;44.49
69464;DHT22;56665;41.106;16.688;2023-07-29T14:07:23;35.78;44.26
69464;DHT22;56665;41.106;16.688;2023-07-29T14:10:26;35.76;45.02
69464;DHT22;56665;41.106;16.688;2023-07-29T14:13:30;35.78;45.45
69464;DHT22;56665;41.106;16.688;2023-07-29T14:16:34;35.44;45.37
69464;DHT22;56665;41.106;16.688;2023-07-29T14:19:38;35.18;45.60
69464;DHT22;56665;41.106;16.688;2023-07-29T14:22:42;34.71;47.03
69464;DHT22;56665;41.106;16.688;2023-07-29T14:25:46;34.25;47.49
69464;DHT22;56665;41.106;16.688;2023-07-29T14:28:50;34.42;48.30
69464;DHT22;56665;41.106;16.688;2023-07-29T14:31:55;34.26;47.99
69464;DHT22;56665;41.106;16.688;2023-07-29T14:34:59;34.19;47.49
69464;DHT22;56665;41.106;16.688;2023-07-29T14:38:07;34.31;47.60
69464;DHT22;56665;41.106;16.688;2023-07-29T14:41:11;34.29;47.74
69464;DHT22;56665;41.106;16.688;2023-07-29T14:44:16;34.35;48.82
69464;DHT22;56665;41.106;16.688;2023-07-29T14:47:20;33.70;49.57
69464;DHT22;56665;41.106;16.688;2023-07-29T14:50:23;33.46;50.05
69464;DHT22;56665;41.106;16.688;2023-07-29T14:53:27;33.60;50.26
69464;DHT22;56665;41.106;16.688;2023-07-29T14:56:32;33.37;49.83
69464;DHT22;56665;41.106;16.688;2023-07-29T14:59:35;33.41;48.95
69464;DHT22;56665;41.106;16.688;2023-07-29T15:02:40;33.44;47.81
69464;DHT22;56665;41.106;16.688;2023-07-29T15:05:44;32.93;45.76
69464;DHT22;56665;41.106;16.688;2023-07-29T15:08:47;32.89;46.20
69464;DHT22;56665;41.106;16.688;2023-07-29T15:11:51;32.95;45.78
69464;DHT22;56665;41.106;16.688;2023-07-29T15:14:56;32.92;47.12
69464;DHT22;56665;41.106;16.688;2023-07-29T15:17:59;32.95;46.87
69464;DHT22;56665;41.106;16.688;2023-07-29T15:21:03;32.85;48.16
69464;DHT22;56665;41.106;16.688;2023-07-29T15:24:08;32.66;49.65
69464;DHT22;56665;41.106;16.688;2023-07-29T15:27:12;32.73;50.24
69464;DHT22;56665;41.106;16.688;2023-07-29T15:30:15;32.71;48.30
69464;DHT22;56665;41.106;16.688;2023-07-29T15:33:19;32.51;48.09
69464;DHT22;56665;41.106;16.688;2023-07-29T15:36:23;32.44;48.78
69464;DHT22;56665;41.106;16.688;2023-07-29T15:39:27;32.17;47.92
69464;DHT22;56665;41.106;16.688;2023-07-29T15:42:31;31.95;48.39
69464;DHT22;56665;41.106;16.688;2023-07-29T15:45:35;31.83;47.89
69464;DHT22;56665;41.106;16.688;2023-07-29T15:48:39;31.77;48.40
69464;DHT22;56665;41.106;16.688;2023-07-29T15:51:44;31.56;51.10
69464;DHT22;56665;41.106;16.688;2023-07-29T15:54:49;31.37;52.53
69464;DHT22;56665;41.106;16.688;2023-07-29T15:57:55;31.39;50.27
69464;DHT22;56665;41.106;16.688;2023-07-29T16:01:00;31.37;50.25
69464;DHT22;56665;41.106;16.688;2023-07-29T16:04:03;31.30;49.98
69464;DHT22;56665;41.106;16.688;2023-07-29T16:07:08;31.21;51.14
69464;DHT22;56665;41.106;16.688;2023-07-29T16:10:13;31.06;49.53
69464;DHT22;56665;41.106;16.688;2023-07-29T16:13:17;31.00;51.33
69464;DHT22;56665;41.106;16.688;2023-07-29T16:16:22;30.96;52.63
69464;DHT22;56665;41.106;16.688;2023-07-29T16:19:27;30.79;53.08
69464;DHT22;56665;41.106;16.688;2023-07-29T16:22:31;30.85;51.35
69464;DHT22;56665;41.106;16.688;2023-07-29T16:25:36;30.88;48.54
69464;DHT22;56665;41.106;16.688;2023-07-29T16:28:41;30.77;47.34
69464;DHT22;56665;41.106;16.688;2023-07-29T16:31:45;30.63;48.28
69464;DHT22;56665;41.106;16.688;2023-07-29T16:34:49;30.64;48.85
69464;DHT22;56665;41.106;16.688;2023-07-29T16:37:53;30.64;49.22
69464;DHT22;56665;41.106;16.688;2023-07-29T16:40:58;30.58;48.08
69464;DHT22;56665;41.106;16.688;2023-07-29T16:44:02;30.58;51.05
69464;DHT22;56665;41.106;16.688;2023-07-29T16:47:06;30.46;52.48
69464;DHT22;56665;41.106;16.688;2023-07-29T16:50:09;30.40;52.07
69464;DHT22;56665;41.106;16.688;2023-07-29T16:53:14;30.31;53.16
69464;DHT22;56665;41.106;16.688;2023-07-29T16:56:18;30.17;53.66
69464;DHT22;56665;41.106;16.688;2023-07-29T16:59:23;30.14;53.57
69464;DHT22;56665;41.106;16.688;2023-07-29T17:02:27;29.96;53.74
69464;DHT22;56665;41.106;16.688;2023-07-29T17:05:31;29.81;54.52
69464;DHT22;56665;41.106;16.688;2023-07-29T17:08:34;29.79;55.40
69464;DHT22;56665;41.106;16.688;2023-07-29T17:11:38;29.73;56.38
69464;DHT22;56665;41.106;16.688;2023-07-29T17:14:42;29.65;57.05
69464;DHT22;56665;41.106;16.688;2023-07-29T17:17:45;29.65;57.68
69464;DHT22;56665;41.106;16.688;2023-07-29T17:20:50;29.58;57.51
69464;DHT22;56665;41.106;16.688;2023-07-29T17:23:54;29.49;58.38
69464;DHT22;56665;41.106;16.688;2023-07-29T17:27:00;29.42;58.73
69464;DHT22;56665;41.106;16.688;2023-07-29T17:30:03;29.35;59.58
69464;DHT22;56665;41.106;16.688;2023-07-29T17:33:07;29.35;59.92
69464;DHT22;56665;41.106;16.688;2023-07-29T17:36:11;29.30;60.14
69464;DHT22;56665;41.106;16.688;2023-07-29T17:39:16;29.21;59.63
69464;DHT22;56665;41.106;16.688;2023-07-29T17:42:19;29.18;60.16
69464;DHT22;56665;41.106;16.688;2023-07-29T17:45:23;29.18;60.32
69464;DHT22;56665;41.106;16.688;2023-07-29T17:48:27;29.04;59.93
69464;DHT22;56665;41.106;16.688;2023-07-29T17:51:31;29.04;59.94
69464;DHT22;56665;41.106;16.688;2023-07-29T17:54:35;29.01;59.87
69464;DHT22;56665;41.106;16.688;2023-07-29T17:57:40;29.00;60.24
69464;DHT22;56665;41.106;16.688;2023-07-29T18:00:44;29.00;60.31
69464;DHT22;56665;41.106;16.688;2023-07-29T18:03:48;28.93;60.07
69464;DHT22;56665;41.106;16.688;2023-07-29T18:06:52;28.86;60.14
69464;DHT22;56665;41.106;16.688;2023-07-29T18:09:56;28.80;60.26
69464;DHT22;56665;41.106;16.688;2023-07-29T18:12:59;28.80;60.20
69464;DHT22;56665;41.106;16.688;2023-07-29T18:16:04;28.77;60.01
69464;DHT22;56665;41.106;16.688;2023-07-29T18:19:08;28.75;60.19
69464;DHT22;56665;41.106;16.688;2023-07-29T18:22:12;28.72;59.50
69464;DHT22;56665;41.106;16.688;2023-07-29T18:25:16;28.68;59.80
69464;DHT22;56665;41.106;16.688;2023-07-29T18:28:20;28.68;60.09
69464;DHT22;56665;41.106;16.688;2023-07-29T18:31:24;28.59;60.01
69464;DHT22;56665;41.106;16.688;2023-07-29T18:34:28;28.58;60.29
69464;DHT22;56665;41.106;16.688;2023-07-29T18:37:31;28.56;60.35
69464;DHT22;56665;41.106;16.688;2023-07-29T18:40:35;28.59;60.56
69464;DHT22;56665;41.106;16.688;2023-07-29T18:43:40;28.55;60.53
69464;DHT22;56665;41.106;16.688;2023-07-29T18:46:43;28.49;60.28
69464;DHT22;56665;41.106;16.688;2023-07-29T18:49:47;28.46;58.89
69464;DHT22;56665;41.106;16.688;2023-07-29T18:52:51;28.43;58.94
69464;DHT22;56665;41.106;16.688;2023-07-29T18:55:57;28.45;58.72
69464;DHT22;56665;41.106;16.688;2023-07-29T18:59:01;28.45;58.78
69464;DHT22;56665;41.106;16.688;2023-07-29T19:02:05;28.45;59.15
69464;DHT22;56665;41.106;16.688;2023-07-29T19:05:10;28.43;59.86
69464;DHT22;56665;41.106;16.688;2023-07-29T19:08:15;28.39;60.02
69464;DHT22;56665;41.106;16.688;2023-07-29T19:11:18;28.40;60.35
69464;DHT22;56665;41.106;16.688;2023-07-29T19:14:22;28.38;59.73